sensor_id;sensor_type;location;lat;lon;timestamp;P1;durP1;ratioP1;P2;durP2;ratioP2
4391;SDS011;2210;51.938;8.488;2023-07-09T00:03:11;6.50;;;4.20;;
4391;SDS011;2210;51.938;8.488;2023-07-09T00:07:28;5.88;;;4.10;;
4391;SDS011;2210;51.938;8.488;2023-07-09T00:11:31;5.90;;;3.60;;
4391;SDS011;2210;51.938;8.488;2023-07-09T00:15:31;4.33;;;3.90;;
4391;SDS011;2210;51.938;8.488;2023-07-09T00:19:31;4.70;;;4.00;;
4391;SDS011;2210;51.938;8.488;2023-07-09T00:23:47;4.43;;;4.00;;
4391;SDS011;2210;51.938;8.488;2023-07-09T00:27:50;4.60;;;3.40;;
4391;SDS011;2210;51.938;8.488;2023-07-09T00:31:51;5.23;;;3.87;;
4391;SDS011;2210;51.938;8.488;2023-07-09T00:35:51;3.42;;;3.03;;
4391;SDS011;2210;51.938;8.488;2023-07-09T00:39:52;5.33;;;3.40;;
4391;SDS011;2210;51.938;8.488;2023-07-09T00:43:52;4.95;;;3.53;;
4391;SDS011;2210;51.938;8.488;2023-07-09T00:48:00;6.47;;;4.03;;
4391;SDS011;2210;51.938;8.488;2023-07-09T00:56:29;4.40;;;3.60;;
4391;SDS011;2210;51.938;8.488;2023-07-09T01:00:39;4.40;;;4.00;;
4391;SDS011;2210;51.938;8.488;2023-07-09T01:04:46;4.60;;;4.10;;
4391;SDS011;2210;51.938;8.488;2023-07-09T01:08:47;5.50;;;3.87;;
4391;SDS011;2210;51.938;8.488;2023-07-09T01:12:53;5.30;;;4.03;;
4391;SDS011;2210;51.938;8.488;2023-07-09T01:16:55;5.13;;;3.87;;
4391;SDS011;2210;51.938;8.488;2023-07-09T01:21:02;7.57;;;3.93;;
4391;SDS011;2210;51.938;8.488;2023-07-09T01:25:07;5.90;;;3.37;;
4391;SDS011;2210;51.938;8.488;2023-07-09T01:29:09;6.43;;;4.57;;
4391;SDS011;2210;51.938;8.488;2023-07-09T01:33:10;4.40;;;3.33;;
4391;SDS011;2210;51.938;8.488;2023-07-09T01:37:11;4.67;;;3.80;;
4391;SDS011;2210;51.938;8.488;2023-07-09T01:41:11;5.90;;;3.63;;
4391;SDS011;2210;51.938;8.488;2023-07-09T01:45:14;6.03;;;4.20;;
4391;SDS011;2210;51.938;8.488;2023-07-09T01:49:27;8.33;;;3.60;;
4391;SDS011;2210;51.938;8.488;2023-07-09T01:53:35;6.23;;;3.73;;
4391;SDS011;2210;51.938;8.488;2023-07-09T01:57:39;5.17;;;4.20;;
4391;SDS011;2210;51.938;8.488;2023-07-09T02:01:44;5.17;;;3.97;;
4391;SDS011;2210;51.938;8.488;2023-07-09T02:05:44;9.93;;;4.27;;
4391;SDS011;2210;51.938;8.488;2023-07-09T02:09:48;5.83;;;4.80;;
4391;SDS011;2210;51.938;8.488;2023-07-09T02:13:49;6.17;;;4.60;;
4391;SDS011;2210;51.938;8.488;2023-07-09T02:17:49;4.35;;;3.95;;
4391;SDS011;2210;51.938;8.488;2023-07-09T02:21:52;7.80;;;4.60;;
4391;SDS011;2210;51.938;8.488;2023-07-09T02:25:53;4.07;;;3.67;;
4391;SDS011;2210;51.938;8.488;2023-07-09T02:30:05;7.47;;;3.90;;
4391;SDS011;2210;51.938;8.488;2023-07-09T02:34:06;5.30;;;4.10;;
4391;SDS011;2210;51.938;8.488;2023-07-09T02:38:19;4.47;;;4.07;;
4391;SDS011;2210;51.938;8.488;2023-07-09T02:42:20;4.97;;;3.43;;
4391;SDS011;2210;51.938;8.488;2023-07-09T02:46:21;5.90;;;4.07;;
4391;SDS011;2210;51.938;8.488;2023-07-09T02:50:25;4.80;;;3.80;;
4391;SDS011;2210;51.938;8.488;2023-07-09T02:54:25;6.03;;;4.43;;
4391;SDS011;2210;51.938;8.488;2023-07-09T02:58:29;6.00;;;4.00;;
4391;SDS011;2210;51.938;8.488;2023-07-09T03:02:29;5.07;;;3.90;;
4391;SDS011;2210;51.938;8.488;2023-07-09T03:06:33;4.80;;;3.90;;
4391;SDS011;2210;51.938;8.488;2023-07-09T03:10:33;5.10;;;3.90;;
4391;SDS011;2210;51.938;8.488;2023-07-09T03:14:33;7.35;;;4.97;;
4391;SDS011;2210;51.938;8.488;2023-07-09T03:18:33;4.43;;;3.90;;
4391;SDS011;2210;51.938;8.488;2023-07-09T03:22:34;5.27;;;4.20;;
4391;SDS011;2210;51.938;8.488;2023-07-09T03:26:34;10.07;;;4.20;;
4391;SDS011;2210;51.938;8.488;2023-07-09T03:30:41;5.43;;;4.27;;
4391;SDS011;2210;51.938;8.488;2023-07-09T03:35:46;6.00;;;4.60;;
4391;SDS011;2210;51.938;8.488;2023-07-09T03:39:47;4.97;;;4.03;;
4391;SDS011;2210;51.938;8.488;2023-07-09T03:43:47;8.20;;;4.10;;
4391;SDS011;2210;51.938;8.488;2023-07-09T03:47:50;5.10;;;4.00;;
4391;SDS011;2210;51.938;8.488;2023-07-09T03:51:50;5.47;;;3.67;;
4391;SDS011;2210;51.938;8.488;2023-07-09T03:55:51;5.13;;;3.90;;
4391;SDS011;2210;51.938;8.488;2023-07-09T04:00:00;5.47;;;3.60;;
4391;SDS011;2210;51.938;8.488;2023-07-09T04:04:02;7.00;;;3.87;;
4391;SDS011;2210;51.938;8.488;2023-07-09T04:08:03;4.43;;;4.03;;
4391;SDS011;2210;51.938;8.488;2023-07-09T04:12:05;5.10;;;3.90;;
4391;SDS011;2210;51.938;8.488;2023-07-09T04:16:05;4.80;;;4.07;;
4391;SDS011;2210;51.938;8.488;2023-07-09T04:20:06;9.27;;;5.30;;
4391;SDS011;2210;51.938;8.488;2023-07-09T04:24:16;4.37;;;3.50;;
4391;SDS011;2210;51.938;8.488;2023-07-09T04:28:20;9.47;;;4.20;;
4391;SDS011;2210;51.938;8.488;2023-07-09T04:32:27;4.13;;;3.73;;
4391;SDS011;2210;51.938;8.488;2023-07-09T04:36:27;7.43;;;3.90;;
4391;SDS011;2210;51.938;8.488;2023-07-09T04:40:27;3.97;;;3.30;;
4391;SDS011;2210;51.938;8.488;2023-07-09T04:44:28;5.03;;;4.50;;
4391;SDS011;2210;51.938;8.488;2023-07-09T04:48:28;6.23;;;3.63;;
4391;SDS011;2210;51.938;8.488;2023-07-09T04:52:29;4.17;;;3.77;;
4391;SDS011;2210;51.938;8.488;2023-07-09T04:56:30;5.37;;;3.80;;
4391;SDS011;2210;51.938;8.488;2023-07-09T05:00:36;6.40;;;3.50;;
4391;SDS011;2210;51.938;8.488;2023-07-09T05:04:40;8.63;;;4.17;;
4391;SDS011;2210;51.938;8.488;2023-07-09T05:08:43;6.20;;;3.67;;
4391;SDS011;2210;51.938;8.488;2023-07-09T05:12:50;4.90;;;3.57;;
4391;SDS011;2210;51.938;8.488;2023-07-09T05:16:51;5.43;;;3.70;;
4391;SDS011;2210;51.938;8.488;2023-07-09T05:20:58;5.10;;;4.20;;
4391;SDS011;2210;51.938;8.488;2023-07-09T05:24:58;4.20;;;3.80;;
4391;SDS011;2210;51.938;8.488;2023-07-09T05:28:58;4.80;;;3.90;;
4391;SDS011;2210;51.938;8.488;2023-07-09T05:32:59;4.90;;;3.77;;
4391;SDS011;2210;51.938;8.488;2023-07-09T05:37:08;3.90;;;3.33;;
4391;SDS011;2210;51.938;8.488;2023-07-09T05:41:47;6.27;;;4.00;;
4391;SDS011;2210;51.938;8.488;2023-07-09T05:45:53;8.10;;;3.43;;
4391;SDS011;2210;51.938;8.488;2023-07-09T05:50:35;4.27;;;3.50;;
4391;SDS011;2210;51.938;8.488;2023-07-09T05:59:20;4.23;;;3.50;;
4391;SDS011;2210;51.938;8.488;2023-07-09T06:08:36;5.37;;;4.30;;
4391;SDS011;2210;51.938;8.488;2023-07-09T06:12:40;8.70;;;3.80;;
4391;SDS011;2210;51.938;8.488;2023-07-09T06:16:44;4.93;;;4.03;;
4391;SDS011;2210;51.938;8.488;2023-07-09T06:20:51;9.13;;;3.67;;
4391;SDS011;2210;51.938;8.488;2023-07-09T06:24:53;5.97;;;4.00;;
4391;SDS011;2210;51.938;8.488;2023-07-09T06:28:54;4.30;;;3.90;;
4391;SDS011;2210;51.938;8.488;2023-07-09T06:32:54;5.83;;;4.03;;
4391;SDS011;2210;51.938;8.488;2023-07-09T06:36:55;4.40;;;4.00;;
4391;SDS011;2210;51.938;8.488;2023-07-09T06:41:02;7.00;;;4.03;;
4391;SDS011;2210;51.938;8.488;2023-07-09T06:45:03;5.10;;;4.07;;
4391;SDS011;2210;51.938;8.488;2023-07-09T06:49:13;6.03;;;3.17;;
4391;SDS011;2210;51.938;8.488;2023-07-09T06:53:15;9.37;;;3.40;;
4391;SDS011;2210;51.938;8.488;2023-07-09T06:57:15;8.30;;;3.87;;
4391;SDS011;2210;51.938;8.488;2023-07-09T07:01:16;4.87;;;3.70;;
4391;SDS011;2210;51.938;8.488;2023-07-09T07:05:18;6.27;;;3.93;;
4391;SDS011;2210;51.938;8.488;2023-07-09T07:09:18;7.30;;;3.77;;
4391;SDS011;2210;51.938;8.488;2023-07-09T07:13:19;4.32;;;3.75;;
4391;SDS011;2210;51.938;8.488;2023-07-09T07:17:19;4.55;;;3.70;;
4391;SDS011;2210;51.938;8.488;2023-07-09T07:21:19;3.97;;;3.57;;
4391;SDS011;2210;51.938;8.488;2023-07-09T07:25:20;4.63;;;3.47;;
4391;SDS011;2210;51.938;8.488;2023-07-09T07:29:23;4.30;;;3.80;;
4391;SDS011;2210;51.938;8.488;2023-07-09T07:33:23;5.00;;;3.83;;
4391;SDS011;2210;51.938;8.488;2023-07-09T07:37:23;5.17;;;3.90;;
4391;SDS011;2210;51.938;8.488;2023-07-09T07:41:24;5.23;;;4.03;;
4391;SDS011;2210;51.938;8.488;2023-07-09T07:45:25;5.80;;;4.23;;
4391;SDS011;2210;51.938;8.488;2023-07-09T07:49:25;6.63;;;3.93;;
4391;SDS011;2210;51.938;8.488;2023-07-09T07:53:25;4.40;;;3.27;;
4391;SDS011;2210;51.938;8.488;2023-07-09T07:57:29;5.47;;;3.33;;
4391;SDS011;2210;51.938;8.488;2023-07-09T08:01:29;5.28;;;3.60;;
4391;SDS011;2210;51.938;8.488;2023-07-09T08:05:29;4.60;;;3.10;;
4391;SDS011;2210;51.938;8.488;2023-07-09T08:09:30;8.80;;;3.47;;
4391;SDS011;2210;51.938;8.488;2023-07-09T08:13:31;4.20;;;3.53;;
4391;SDS011;2210;51.938;8.488;2023-07-09T08:17:33;4.60;;;3.13;;
4391;SDS011;2210;51.938;8.488;2023-07-09T08:21:33;5.20;;;3.33;;
4391;SDS011;2210;51.938;8.488;2023-07-09T08:25:33;5.40;;;3.43;;
4391;SDS011;2210;51.938;8.488;2023-07-09T08:29:33;8.13;;;3.35;;
4391;SDS011;2210;51.938;8.488;2023-07-09T08:33:34;4.80;;;2.97;;
4391;SDS011;2210;51.938;8.488;2023-07-09T08:37:34;4.80;;;3.07;;
4391;SDS011;2210;51.938;8.488;2023-07-09T08:41:37;6.43;;;3.57;;
4391;SDS011;2210;51.938;8.488;2023-07-09T08:45:54;3.63;;;3.30;;
4391;SDS011;2210;51.938;8.488;2023-07-09T08:50:09;4.20;;;2.87;;
4391;SDS011;2210;51.938;8.488;2023-07-09T08:54:18;7.40;;;3.33;;
4391;SDS011;2210;51.938;8.488;2023-07-09T08:58:30;5.07;;;3.43;;
4391;SDS011;2210;51.938;8.488;2023-07-09T09:02:33;6.00;;;4.27;;
4391;SDS011;2210;51.938;8.488;2023-07-09T09:06:38;4.67;;;3.13;;
4391;SDS011;2210;51.938;8.488;2023-07-09T09:10:48;5.67;;;3.33;;
4391;SDS011;2210;51.938;8.488;2023-07-09T09:15:10;3.73;;;2.90;;
4391;SDS011;2210;51.938;8.488;2023-07-09T09:23:36;4.90;;;3.30;;
4391;SDS011;2210;51.938;8.488;2023-07-09T09:27:40;5.50;;;3.00;;
4391;SDS011;2210;51.938;8.488;2023-07-09T09:31:43;6.83;;;3.60;;
4391;SDS011;2210;51.938;8.488;2023-07-09T09:35:46;6.50;;;3.50;;
4391;SDS011;2210;51.938;8.488;2023-07-09T09:39:49;8.67;;;3.47;;
4391;SDS011;2210;51.938;8.488;2023-07-09T09:43:51;7.00;;;3.27;;
4391;SDS011;2210;51.938;8.488;2023-07-09T09:47:53;3.87;;;3.23;;
4391;SDS011;2210;51.938;8.488;2023-07-09T09:52:01;7.03;;;3.40;;
4391;SDS011;2210;51.938;8.488;2023-07-09T09:56:04;4.97;;;3.57;;
4391;SDS011;2210;51.938;8.488;2023-07-09T10:00:12;4.40;;;3.53;;
4391;SDS011;2210;51.938;8.488;2023-07-09T10:04:17;5.53;;;2.87;;
4391;SDS011;2210;51.938;8.488;2023-07-09T10:08:39;4.53;;;3.37;;
4391;SDS011;2210;51.938;8.488;2023-07-09T10:12:51;5.50;;;3.10;;
4391;SDS011;2210;51.938;8.488;2023-07-09T10:16:55;4.20;;;3.33;;
4391;SDS011;2210;51.938;8.488;2023-07-09T10:25:32;4.10;;;2.90;;
4391;SDS011;2210;51.938;8.488;2023-07-09T10:38:45;6.03;;;3.33;;
4391;SDS011;2210;51.938;8.488;2023-07-09T10:42:55;3.77;;;3.13;;
4391;SDS011;2210;51.938;8.488;2023-07-09T10:47:01;5.30;;;3.10;;
4391;SDS011;2210;51.938;8.488;2023-07-09T10:51:10;6.43;;;3.77;;
4391;SDS011;2210;51.938;8.488;2023-07-09T10:55:26;4.60;;;3.00;;
4391;SDS011;2210;51.938;8.488;2023-07-09T10:59:33;5.17;;;3.47;;
4391;SDS011;2210;51.938;8.488;2023-07-09T11:07:44;6.53;;;4.03;;
4391;SDS011;2210;51.938;8.488;2023-07-09T11:12:19;6.00;;;3.40;;
4391;SDS011;2210;51.938;8.488;2023-07-09T11:16:38;5.77;;;3.33;;
4391;SDS011;2210;51.938;8.488;2023-07-09T11:20:42;6.43;;;3.70;;
4391;SDS011;2210;51.938;8.488;2023-07-09T11:24:45;5.40;;;4.00;;
4391;SDS011;2210;51.938;8.488;2023-07-09T11:28:52;5.50;;;3.73;;
4391;SDS011;2210;51.938;8.488;2023-07-09T11:33:02;6.20;;;3.23;;
4391;SDS011;2210;51.938;8.488;2023-07-09T11:37:08;5.10;;;3.00;;
4391;SDS011;2210;51.938;8.488;2023-07-09T11:41:28;4.63;;;3.03;;
4391;SDS011;2210;51.938;8.488;2023-07-09T11:45:34;3.60;;;2.70;;
4391;SDS011;2210;51.938;8.488;2023-07-09T11:50:20;3.93;;;2.80;;
4391;SDS011;2210;51.938;8.488;2023-07-09T11:53:59;6.07;;;3.10;;
4391;SDS011;2210;51.938;8.488;2023-07-09T11:58:01;3.90;;;2.80;;
4391;SDS011;2210;51.938;8.488;2023-07-09T12:02:03;5.70;;;1.83;;
4391;SDS011;2210;51.938;8.488;2023-07-09T12:06:04;4.87;;;2.37;;
4391;SDS011;2210;51.938;8.488;2023-07-09T12:10:21;4.53;;;2.50;;
4391;SDS011;2210;51.938;8.488;2023-07-09T12:14:23;4.10;;;2.27;;
4391;SDS011;2210;51.938;8.488;2023-07-09T12:18:24;5.63;;;2.73;;
4391;SDS011;2210;51.938;8.488;2023-07-09T12:22:24;4.93;;;3.30;;
4391;SDS011;2210;51.938;8.488;2023-07-09T12:26:25;4.70;;;2.97;;
4391;SDS011;2210;51.938;8.488;2023-07-09T12:30:25;4.30;;;3.50;;
4391;SDS011;2210;51.938;8.488;2023-07-09T12:34:25;5.77;;;2.70;;
4391;SDS011;2210;51.938;8.488;2023-07-09T12:38:28;4.20;;;2.87;;
4391;SDS011;2210;51.938;8.488;2023-07-09T12:42:30;4.67;;;3.10;;
4391;SDS011;2210;51.938;8.488;2023-07-09T12:46:33;7.30;;;2.73;;
4391;SDS011;2210;51.938;8.488;2023-07-09T12:50:35;5.60;;;2.30;;
4391;SDS011;2210;51.938;8.488;2023-07-09T12:54:35;4.40;;;2.87;;
4391;SDS011;2210;51.938;8.488;2023-07-09T12:58:36;6.97;;;3.38;;
4391;SDS011;2210;51.938;8.488;2023-07-09T13:02:38;5.30;;;2.90;;
4391;SDS011;2210;51.938;8.488;2023-07-09T13:06:38;4.37;;;2.80;;
4391;SDS011;2210;51.938;8.488;2023-07-09T13:10:39;3.67;;;3.00;;
4391;SDS011;2210;51.938;8.488;2023-07-09T13:14:41;4.70;;;2.70;;
4391;SDS011;2210;51.938;8.488;2023-07-09T13:18:41;4.43;;;2.70;;
4391;SDS011;2210;51.938;8.488;2023-07-09T13:22:42;4.75;;;3.35;;
4391;SDS011;2210;51.938;8.488;2023-07-09T13:26:43;2.87;;;2.57;;
4391;SDS011;2210;51.938;8.488;2023-07-09T13:30:44;5.60;;;2.90;;
4391;SDS011;2210;51.938;8.488;2023-07-09T13:34:44;3.40;;;2.57;;
4391;SDS011;2210;51.938;8.488;2023-07-09T13:38:44;3.67;;;2.67;;
4391;SDS011;2210;51.938;8.488;2023-07-09T13:42:44;4.00;;;3.00;;
4391;SDS011;2210;51.938;8.488;2023-07-09T13:46:48;2.73;;;2.53;;
4391;SDS011;2210;51.938;8.488;2023-07-09T13:50:51;7.23;;;3.17;;
4391;SDS011;2210;51.938;8.488;2023-07-09T13:54:53;3.20;;;2.70;;
4391;SDS011;2210;51.938;8.488;2023-07-09T13:58:54;4.30;;;2.90;;
4391;SDS011;2210;51.938;8.488;2023-07-09T14:03:00;5.03;;;2.90;;
4391;SDS011;2210;51.938;8.488;2023-07-09T14:07:03;4.43;;;3.20;;
4391;SDS011;2210;51.938;8.488;2023-07-09T14:11:07;4.37;;;2.70;;
4391;SDS011;2210;51.938;8.488;2023-07-09T14:15:14;5.73;;;3.03;;
4391;SDS011;2210;51.938;8.488;2023-07-09T14:19:17;4.97;;;2.90;;
4391;SDS011;2210;51.938;8.488;2023-07-09T14:23:19;7.83;;;2.87;;
4391;SDS011;2210;51.938;8.488;2023-07-09T14:27:19;3.93;;;3.03;;
4391;SDS011;2210;51.938;8.488;2023-07-09T14:31:29;5.78;;;3.15;;
4391;SDS011;2210;51.938;8.488;2023-07-09T14:35:35;3.17;;;2.60;;
4391;SDS011;2210;51.938;8.488;2023-07-09T14:39:43;8.00;;;3.30;;
4391;SDS011;2210;51.938;8.488;2023-07-09T14:43:47;7.37;;;2.77;;
4391;SDS011;2210;51.938;8.488;2023-07-09T14:52:38;3.60;;;2.80;;
4391;SDS011;2210;51.938;8.488;2023-07-09T14:56:41;3.50;;;3.17;;
4391;SDS011;2210;51.938;8.488;2023-07-09T15:00:42;4.03;;;3.00;;
4391;SDS011;2210;51.938;8.488;2023-07-09T15:04:43;4.50;;;2.90;;
4391;SDS011;2210;51.938;8.488;2023-07-09T15:08:44;5.60;;;2.90;;
4391;SDS011;2210;51.938;8.488;2023-07-09T15:12:47;5.50;;;3.10;;
4391;SDS011;2210;51.938;8.488;2023-07-09T15:16:48;4.03;;;3.13;;
4391;SDS011;2210;51.938;8.488;2023-07-09T15:20:50;8.10;;;4.57;;
4391;SDS011;2210;51.938;8.488;2023-07-09T15:25:00;4.90;;;3.30;;
4391;SDS011;2210;51.938;8.488;2023-07-09T15:29:01;4.23;;;2.70;;
4391;SDS011;2210;51.938;8.488;2023-07-09T15:33:01;7.33;;;2.97;;
4391;SDS011;2210;51.938;8.488;2023-07-09T15:37:04;4.30;;;3.23;;
4391;SDS011;2210;51.938;8.488;2023-07-09T15:41:12;4.13;;;3.23;;
4391;SDS011;2210;51.938;8.488;2023-07-09T15:45:14;4.90;;;2.90;;
4391;SDS011;2210;51.938;8.488;2023-07-09T15:49:16;3.77;;;2.63;;
4391;SDS011;2210;51.938;8.488;2023-07-09T15:53:16;3.47;;;3.00;;
4391;SDS011;2210;51.938;8.488;2023-07-09T15:57:17;4.57;;;3.03;;
4391;SDS011;2210;51.938;8.488;2023-07-09T16:01:20;4.80;;;3.00;;
4391;SDS011;2210;51.938;8.488;2023-07-09T16:05:27;3.87;;;2.63;;
4391;SDS011;2210;51.938;8.488;2023-07-09T16:09:29;3.57;;;2.73;;
4391;SDS011;2210;51.938;8.488;2023-07-09T16:13:29;5.13;;;3.07;;
4391;SDS011;2210;51.938;8.488;2023-07-09T16:17:30;6.03;;;3.43;;
4391;SDS011;2210;51.938;8.488;2023-07-09T16:21:36;6.10;;;3.35;;
4391;SDS011;2210;51.938;8.488;2023-07-09T16:25:39;6.40;;;3.87;;
4391;SDS011;2210;51.938;8.488;2023-07-09T16:29:40;5.53;;;4.00;;
4391;SDS011;2210;51.938;8.488;2023-07-09T16:33:43;4.00;;;3.60;;
4391;SDS011;2210;51.938;8.488;2023-07-09T16:37:45;4.43;;;3.37;;
4391;SDS011;2210;51.938;8.488;2023-07-09T16:41:54;6.33;;;4.00;;
4391;SDS011;2210;51.938;8.488;2023-07-09T16:45:55;7.73;;;3.50;;
4391;SDS011;2210;51.938;8.488;2023-07-09T16:49:59;4.47;;;3.20;;
4391;SDS011;2210;51.938;8.488;2023-07-09T16:54:07;7.23;;;3.57;;
4391;SDS011;2210;51.938;8.488;2023-07-09T17:02:29;5.70;;;2.87;;
4391;SDS011;2210;51.938;8.488;2023-07-09T17:06:34;6.20;;;3.07;;
4391;SDS011;2210;51.938;8.488;2023-07-09T17:10:39;5.47;;;3.00;;
4391;SDS011;2210;51.938;8.488;2023-07-09T17:14:44;11.53;;;4.33;;
4391;SDS011;2210;51.938;8.488;2023-07-09T17:18:44;8.57;;;3.90;;
4391;SDS011;2210;51.938;8.488;2023-07-09T17:22:48;6.83;;;2.97;;
4391;SDS011;2210;51.938;8.488;2023-07-09T17:26:51;13.03;;;3.70;;
4391;SDS011;2210;51.938;8.488;2023-07-09T17:30:52;9.10;;;3.47;;
4391;SDS011;2210;51.938;8.488;2023-07-09T17:34:52;3.90;;;2.90;;
4391;SDS011;2210;51.938;8.488;2023-07-09T17:38:53;5.13;;;2.90;;
4391;SDS011;2210;51.938;8.488;2023-07-09T17:42:53;4.93;;;2.93;;
4391;SDS011;2210;51.938;8.488;2023-07-09T17:46:55;4.10;;;2.80;;
4391;SDS011;2210;51.938;8.488;2023-07-09T17:50:57;3.37;;;2.80;;
4391;SDS011;2210;51.938;8.488;2023-07-09T17:54:58;3.77;;;2.97;;
4391;SDS011;2210;51.938;8.488;2023-07-09T17:58:58;6.70;;;2.80;;
4391;SDS011;2210;51.938;8.488;2023-07-09T18:03:05;4.27;;;2.53;;
4391;SDS011;2210;51.938;8.488;2023-07-09T18:07:14;4.27;;;2.73;;
4391;SDS011;2210;51.938;8.488;2023-07-09T18:11:25;7.50;;;2.80;;
4391;SDS011;2210;51.938;8.488;2023-07-09T18:15:32;3.23;;;2.13;;
4391;SDS011;2210;51.938;8.488;2023-07-09T18:19:33;3.57;;;2.47;;
4391;SDS011;2210;51.938;8.488;2023-07-09T18:23:34;2.73;;;2.27;;
4391;SDS011;2210;51.938;8.488;2023-07-09T18:27:36;3.80;;;2.30;;
4391;SDS011;2210;51.938;8.488;2023-07-09T18:31:38;3.20;;;2.57;;
4391;SDS011;2210;51.938;8.488;2023-07-09T18:35:39;3.50;;;2.43;;
4391;SDS011;2210;51.938;8.488;2023-07-09T18:39:39;7.13;;;2.30;;
4391;SDS011;2210;51.938;8.488;2023-07-09T18:43:40;4.70;;;2.67;;
4391;SDS011;2210;51.938;8.488;2023-07-09T18:47:40;3.50;;;2.40;;
4391;SDS011;2210;51.938;8.488;2023-07-09T18:51:41;5.40;;;2.50;;
4391;SDS011;2210;51.938;8.488;2023-07-09T18:55:43;3.70;;;2.57;;
4391;SDS011;2210;51.938;8.488;2023-07-09T18:59:44;3.53;;;2.60;;
4391;SDS011;2210;51.938;8.488;2023-07-09T19:03:45;8.40;;;2.90;;
4391;SDS011;2210;51.938;8.488;2023-07-09T19:07:46;3.00;;;2.43;;
4391;SDS011;2210;51.938;8.488;2023-07-09T19:11:48;6.50;;;2.67;;
4391;SDS011;2210;51.938;8.488;2023-07-09T19:15:52;5.27;;;2.50;;
4391;SDS011;2210;51.938;8.488;2023-07-09T19:19:53;5.93;;;2.70;;
4391;SDS011;2210;51.938;8.488;2023-07-09T19:23:59;3.63;;;2.42;;
4391;SDS011;2210;51.938;8.488;2023-07-09T19:28:03;3.87;;;2.70;;
4391;SDS011;2210;51.938;8.488;2023-07-09T19:32:05;3.30;;;2.70;;
4391;SDS011;2210;51.938;8.488;2023-07-09T19:36:20;3.37;;;2.73;;
4391;SDS011;2210;51.938;8.488;2023-07-09T19:40:26;3.43;;;2.60;;
4391;SDS011;2210;51.938;8.488;2023-07-09T19:44:31;3.37;;;3.07;;
4391;SDS011;2210;51.938;8.488;2023-07-09T19:48:31;6.17;;;3.10;;
4391;SDS011;2210;51.938;8.488;2023-07-09T19:52:31;4.43;;;2.80;;
4391;SDS011;2210;51.938;8.488;2023-07-09T19:56:34;3.60;;;2.37;;
4391;SDS011;2210;51.938;8.488;2023-07-09T20:00:34;8.17;;;2.67;;
4391;SDS011;2210;51.938;8.488;2023-07-09T20:04:41;4.30;;;2.63;;
4391;SDS011;2210;51.938;8.488;2023-07-09T20:08:41;4.70;;;3.10;;
4391;SDS011;2210;51.938;8.488;2023-07-09T20:12:42;4.10;;;2.57;;
4391;SDS011;2210;51.938;8.488;2023-07-09T20:16:46;4.63;;;2.83;;
4391;SDS011;2210;51.938;8.488;2023-07-09T20:20:48;3.83;;;2.70;;
4391;SDS011;2210;51.938;8.488;2023-07-09T20:24:50;3.50;;;3.03;;
4391;SDS011;2210;51.938;8.488;2023-07-09T20:28:51;5.50;;;3.33;;
4391;SDS011;2210;51.938;8.488;2023-07-09T20:32:51;5.20;;;3.00;;
4391;SDS011;2210;51.938;8.488;2023-07-09T20:36:51;6.20;;;3.13;;
4391;SDS011;2210;51.938;8.488;2023-07-09T20:40:51;6.37;;;3.00;;
4391;SDS011;2210;51.938;8.488;2023-07-09T20:44:52;3.13;;;2.83;;
4391;SDS011;2210;51.938;8.488;2023-07-09T20:48:58;3.60;;;2.60;;
4391;SDS011;2210;51.938;8.488;2023-07-09T20:52:59;5.43;;;2.97;;
4391;SDS011;2210;51.938;8.488;2023-07-09T20:56:59;5.07;;;3.25;;
4391;SDS011;2210;51.938;8.488;2023-07-09T21:01:00;8.17;;;2.87;;
4391;SDS011;2210;51.938;8.488;2023-07-09T21:05:00;6.13;;;3.40;;
4391;SDS011;2210;51.938;8.488;2023-07-09T21:13:33;5.93;;;3.23;;
4391;SDS011;2210;51.938;8.488;2023-07-09T21:17:39;12.90;;;3.20;;
4391;SDS011;2210;51.938;8.488;2023-07-09T21:21:40;5.03;;;3.20;;
4391;SDS011;2210;51.938;8.488;2023-07-09T21:25:46;5.00;;;3.10;;
4391;SDS011;2210;51.938;8.488;2023-07-09T21:29:47;7.83;;;3.13;;
4391;SDS011;2210;51.938;8.488;2023-07-09T21:33:48;4.87;;;3.20;;
4391;SDS011;2210;51.938;8.488;2023-07-09T21:37:49;3.50;;;3.10;;
4391;SDS011;2210;51.938;8.488;2023-07-09T21:41:51;4.20;;;3.17;;
4391;SDS011;2210;51.938;8.488;2023-07-09T21:45:56;3.93;;;3.23;;
4391;SDS011;2210;51.938;8.488;2023-07-09T21:49:57;6.07;;;3.10;;
4391;SDS011;2210;51.938;8.488;2023-07-09T21:53:57;8.43;;;3.47;;
4391;SDS011;2210;51.938;8.488;2023-07-09T21:57:57;4.47;;;2.97;;
4391;SDS011;2210;51.938;8.488;2023-07-09T22:01:58;7.60;;;3.37;;
4391;SDS011;2210;51.938;8.488;2023-07-09T22:06:00;4.20;;;3.40;;
4391;SDS011;2210;51.938;8.488;2023-07-09T22:10:00;4.43;;;3.77;;
4391;SDS011;2210;51.938;8.488;2023-07-09T22:14:12;4.53;;;3.43;;
4391;SDS011;2210;51.938;8.488;2023-07-09T22:18:15;4.83;;;3.20;;
4391;SDS011;2210;51.938;8.488;2023-07-09T22:22:17;4.40;;;3.40;;
4391;SDS011;2210;51.938;8.488;2023-07-09T22:26:21;5.17;;;3.13;;
4391;SDS011;2210;51.938;8.488;2023-07-09T22:30:23;4.10;;;3.70;;
4391;SDS011;2210;51.938;8.488;2023-07-09T22:34:28;11.40;;;4.10;;
4391;SDS011;2210;51.938;8.488;2023-07-09T22:38:28;8.90;;;3.80;;
4391;SDS011;2210;51.938;8.488;2023-07-09T22:42:41;7.03;;;3.50;;
4391;SDS011;2210;51.938;8.488;2023-07-09T22:46:42;3.70;;;3.13;;
4391;SDS011;2210;51.938;8.488;2023-07-09T22:50:43;5.20;;;4.30;;
4391;SDS011;2210;51.938;8.488;2023-07-09T22:54:44;9.50;;;4.27;;
4391;SDS011;2210;51.938;8.488;2023-07-09T22:58:44;4.17;;;3.57;;
4391;SDS011;2210;51.938;8.488;2023-07-09T23:02:48;5.03;;;4.20;;
4391;SDS011;2210;51.938;8.488;2023-07-09T23:06:49;3.90;;;3.50;;
4391;SDS011;2210;51.938;8.488;2023-07-09T23:10:50;4.70;;;3.75;;
4391;SDS011;2210;51.938;8.488;2023-07-09T23:14:52;8.63;;;3.93;;
4391;SDS011;2210;51.938;8.488;2023-07-09T23:18:52;4.50;;;4.10;;
4391;SDS011;2210;51.938;8.488;2023-07-09T23:23:01;5.90;;;4.00;;
4391;SDS011;2210;51.938;8.488;2023-07-09T23:27:03;5.07;;;4.00;;
4391;SDS011;2210;51.938;8.488;2023-07-09T23:31:04;9.93;;;4.50;;
4391;SDS011;2210;51.938;8.488;2023-07-09T23:35:11;4.67;;;4.13;;
4391;SDS011;2210;51.938;8.488;2023-07-09T23:39:12;5.30;;;4.30;;
4391;SDS011;2210;51.938;8.488;2023-07-09T23:43:16;5.17;;;4.67;;
4391;SDS011;2210;51.938;8.488;2023-07-09T23:47:18;8.43;;;4.73;;
4391;SDS011;2210;51.938;8.488;2023-07-09T23:51:18;6.00;;;4.77;;
4391;SDS011;2210;51.938;8.488;2023-07-09T23:55:18;7.07;;;4.35;;
4391;SDS011;2210;51.938;8.488;2023-07-09T23:59:20;6.60;;;5.17;;
